createdAt,value
2024-04-23T00:00:31.184Z,-0.09
2024-04-23T00:02:57.722Z,-0.09
2024-04-23T00:05:24.580Z,-0.08
2024-04-23T00:07:51.130Z,-0.13
2024-04-23T00:10:17.670Z,-0.15
2024-04-23T00:12:44.130Z,-0.21
2024-04-23T00:15:10.611Z,-0.25
2024-04-23T00:17:37.160Z,-0.26
2024-04-23T00:20:03.814Z,-0.24
2024-04-23T00:22:30.356Z,-0.30
2024-04-23T00:24:56.996Z,-0.35
2024-04-23T00:27:23.456Z,-0.37
2024-04-23T00:29:49.950Z,-0.36
2024-04-23T00:32:16.551Z,-0.35
2024-04-23T00:34:43.088Z,-0.32
2024-04-23T00:37:09.577Z,-0.35
2024-04-23T00:39:36.035Z,-0.35
2024-04-23T00:42:02.520Z,-0.37
2024-04-23T00:44:29.049Z,-0.27
2024-04-23T00:46:56.092Z,-0.32
2024-04-23T00:49:22.763Z,-0.42
2024-04-23T00:51:53.607Z,-0.34
2024-04-23T00:54:26.141Z,-0.34
2024-04-23T00:56:55.120Z,-0.32
2024-04-23T00:59:21.575Z,-0.38
2024-04-23T01:01:49.781Z,-0.37
2024-04-23T01:04:16.335Z,-0.48
2024-04-23T01:06:43.224Z,-0.47
2024-04-23T01:09:10.323Z,-0.52
2024-04-23T01:11:37.387Z,-0.59
2024-04-23T01:14:05.176Z,-0.56
2024-04-23T01:16:36.289Z,-0.51
2024-04-23T01:19:05.640Z,-0.50
2024-04-23T01:21:44.079Z,-0.52
2024-04-23T01:24:16.594Z,-0.55
2024-04-23T01:26:43.632Z,-0.58
2024-04-23T01:29:10.681Z,-0.59
2024-04-23T01:31:37.353Z,-0.58
2024-04-23T01:34:04.765Z,-0.62
2024-04-23T01:36:31.394Z,-0.62
2024-04-23T01:38:58.586Z,-0.68
2024-04-23T01:41:25.263Z,-0.72
2024-04-23T01:43:52.542Z,-0.70
2024-04-23T01:46:19.696Z,-0.75
2024-04-23T01:48:46.191Z,-0.74
2024-04-23T01:51:12.679Z,-0.79
2024-04-23T01:53:39.130Z,-0.71
2024-04-23T01:56:05.992Z,-0.86
2024-04-23T01:58:32.626Z,-0.84
2024-04-23T02:01:01.423Z,-0.83
2024-04-23T02:03:29.230Z,-0.87
2024-04-23T02:05:59.269Z,-0.93
2024-04-23T02:08:25.878Z,-0.93
2024-04-23T02:10:52.480Z,-0.89
2024-04-23T02:13:19.063Z,-0.87
2024-04-23T02:15:45.545Z,-0.93
2024-04-23T02:18:12.215Z,-0.93
2024-04-23T02:20:38.704Z,-0.93
2024-04-23T02:23:05.359Z,-0.88
2024-04-23T02:25:31.869Z,-0.94
2024-04-23T02:27:58.355Z,-0.88
2024-04-23T02:30:24.799Z,-0.93
2024-04-23T02:32:51.371Z,-0.96
2024-04-23T02:35:17.857Z,-0.98
2024-04-23T02:37:44.360Z,-0.97
2024-04-23T02:40:11.161Z,-0.97
2024-04-23T02:42:37.612Z,-1.00
2024-04-23T02:45:04.356Z,-1.01
2024-04-23T02:47:30.889Z,-1.03
2024-04-23T02:49:57.509Z,-1.16
2024-04-23T02:52:24.055Z,-1.09
2024-04-23T02:54:50.511Z,-1.12
2024-04-23T02:57:17.002Z,-1.15
2024-04-23T02:59:43.451Z,-1.16
2024-04-23T03:02:11.964Z,-1.16
2024-04-23T03:04:38.583Z,-1.18
2024-04-23T03:07:05.116Z,-1.18
2024-04-23T03:09:31.628Z,-1.19
2024-04-23T03:11:58.204Z,-1.22
2024-04-23T03:14:24.691Z,-1.32
2024-04-23T03:16:51.214Z,-1.26
2024-04-23T03:19:17.767Z,-1.27
2024-04-23T03:21:50.984Z,-1.26
2024-04-23T03:24:17.547Z,-1.35
2024-04-23T03:26:44.016Z,-1.37
2024-04-23T03:29:10.496Z,-1.39
2024-04-23T03:31:37.030Z,-1.39
2024-04-23T03:34:03.591Z,-1.38
2024-04-23T03:36:30.112Z,-1.37
2024-04-23T03:38:56.582Z,-1.36
2024-04-23T03:41:23.014Z,-1.39
2024-04-23T03:43:49.552Z,-1.42
2024-04-23T03:46:16.034Z,-1.43
2024-04-23T03:48:42.496Z,-1.41
2024-04-23T03:51:08.965Z,-1.44
2024-04-23T03:53:35.408Z,-1.44
2024-04-23T03:56:01.957Z,-1.45
2024-04-23T03:58:28.510Z,-1.47
2024-04-23T04:00:55.026Z,-1.48
2024-04-23T04:03:40.169Z,-1.53
2024-04-23T04:06:09.745Z,-1.56
2024-04-23T04:08:39.529Z,-1.55
2024-04-23T04:11:06.889Z,-1.59
2024-04-23T04:13:34.044Z,-1.61
2024-04-23T04:16:01.226Z,-1.59
2024-04-23T04:18:27.735Z,-1.61
2024-04-23T04:20:54.829Z,-1.65
2024-04-23T04:23:21.395Z,-1.59
2024-04-23T04:25:47.847Z,-1.61
2024-04-23T04:28:14.339Z,-1.53
2024-04-23T04:30:41.187Z,-1.60
2024-04-23T04:33:07.817Z,-1.59
2024-04-23T04:35:34.415Z,-1.63
2024-04-23T04:38:00.907Z,-1.61
2024-04-23T04:40:27.459Z,-1.59
2024-04-23T04:42:53.925Z,-1.53
2024-04-23T04:45:20.631Z,-1.42
2024-04-23T04:47:50.333Z,-1.28
2024-04-23T04:50:18.815Z,-1.12
2024-04-23T04:52:45.822Z,-0.98
2024-04-23T04:55:12.388Z,-0.81
2024-04-23T04:57:38.859Z,-0.66
2024-04-23T05:00:05.724Z,-0.59
2024-04-23T05:02:32.265Z,-0.45
2024-04-23T05:04:58.933Z,-0.28
2024-04-23T05:07:25.530Z,-0.18
2024-04-23T05:09:52.001Z,-0.05
2024-04-23T05:12:18.630Z,0.05
2024-04-23T05:14:45.176Z,0.14
2024-04-23T05:17:11.776Z,0.23
2024-04-23T05:19:38.341Z,0.29
2024-04-23T05:22:04.901Z,0.47
2024-04-23T05:24:31.350Z,0.69
2024-04-23T05:26:57.798Z,0.72
2024-04-23T05:29:24.285Z,0.92
2024-04-23T05:32:09.514Z,1.07
2024-04-23T05:34:37.194Z,1.31
2024-04-23T05:37:03.693Z,1.37
2024-04-23T05:39:30.205Z,1.50
2024-04-23T05:41:57.226Z,1.71
2024-04-23T05:44:23.749Z,1.66
2024-04-23T05:46:50.259Z,1.93
2024-04-23T05:49:54.346Z,2.25
2024-04-23T05:52:59.852Z,2.47
2024-04-23T05:55:40.418Z,2.61
2024-04-23T05:58:08.031Z,2.73
2024-04-23T06:00:35.433Z,2.93
2024-04-23T06:03:03.031Z,3.21
2024-04-23T06:05:30.150Z,3.55
2024-04-23T06:07:58.742Z,4.11
2024-04-23T06:10:25.571Z,4.46
2024-04-23T06:12:52.112Z,4.56
2024-04-23T06:15:19.233Z,5.05
2024-04-23T06:17:48.059Z,5.41
2024-04-23T06:20:15.562Z,5.68
2024-04-23T06:22:43.088Z,5.99
2024-04-23T06:25:11.625Z,6.26
2024-04-23T06:27:39.821Z,7.23
2024-04-23T06:30:08.477Z,6.96
2024-04-23T06:32:36.523Z,7.32
2024-04-23T06:35:04.196Z,6.85
2024-04-23T06:37:30.817Z,6.94
2024-04-23T06:39:57.410Z,7.24
2024-04-23T06:42:23.940Z,7.45
2024-04-23T06:44:50.416Z,7.87
2024-04-23T06:47:18.154Z,7.42
2024-04-23T06:49:45.589Z,7.60
2024-04-23T06:52:15.871Z,7.53
2024-04-23T06:54:42.508Z,7.38
2024-04-23T06:57:09.006Z,8.28
2024-04-23T06:59:35.580Z,7.90
2024-04-23T07:02:02.648Z,7.96
2024-04-23T07:04:29.200Z,8.10
2024-04-23T07:06:55.876Z,8.21
2024-04-23T07:09:22.640Z,8.16
2024-04-23T07:11:49.200Z,8.44
2024-04-23T07:14:15.669Z,8.41
2024-04-23T07:16:46.264Z,8.91
2024-04-23T07:19:15.933Z,8.96
2024-04-23T07:21:42.788Z,9.55
2024-04-23T07:24:09.319Z,9.11
2024-04-23T07:26:35.778Z,8.92
2024-04-23T07:29:02.557Z,9.55
2024-04-23T07:31:29.154Z,9.62
2024-04-23T07:33:55.681Z,9.65
2024-04-23T07:36:22.205Z,9.81
2024-04-23T07:38:48.752Z,9.80
2024-04-23T07:41:16.282Z,10.40
2024-04-23T07:43:43.231Z,10.10
2024-04-23T07:46:09.828Z,10.21
2024-04-23T07:48:36.336Z,10.41
2024-04-23T07:51:02.919Z,10.86
2024-04-23T07:53:30.561Z,10.64
2024-04-23T07:55:57.143Z,9.89
2024-04-23T07:58:23.680Z,9.50
2024-04-23T08:00:50.160Z,9.60
2024-04-23T08:03:16.712Z,9.88
2024-04-23T08:05:43.276Z,9.95
2024-04-23T08:08:09.855Z,10.18
2024-04-23T08:10:36.791Z,9.91
2024-04-23T08:13:03.270Z,10.16
2024-04-23T08:15:29.946Z,9.79
2024-04-23T08:17:56.533Z,10.62
2024-04-23T08:20:23.937Z,10.11
2024-04-23T08:22:56.152Z,10.26
2024-04-23T08:25:22.678Z,10.43
2024-04-23T08:27:49.343Z,10.81
2024-04-23T08:30:21.065Z,10.25
2024-04-23T08:32:47.667Z,9.97
2024-04-23T08:35:14.296Z,9.79
2024-04-23T08:37:41.818Z,9.84
2024-04-23T08:40:11.798Z,9.34
2024-04-23T08:42:40.124Z,9.62
2024-04-23T08:45:09.231Z,9.90
2024-04-23T08:47:37.949Z,10.05
2024-04-23T08:50:05.291Z,9.74
2024-04-23T08:52:32.140Z,9.71
2024-04-23T08:54:58.959Z,9.90
2024-04-23T08:57:27.352Z,9.94
2024-04-23T08:59:54.145Z,10.03
2024-04-23T09:02:30.039Z,9.92
2024-04-23T09:04:59.016Z,9.66
2024-04-23T09:07:30.995Z,9.74
2024-04-23T09:10:01.000Z,9.92
2024-04-23T09:12:28.025Z,9.97
2024-04-23T09:14:58.328Z,10.27
2024-04-23T09:17:25.235Z,10.14
2024-04-23T09:19:52.499Z,10.06
2024-04-23T09:22:19.177Z,9.85
2024-04-23T09:24:45.650Z,10.82
2024-04-23T09:27:12.373Z,10.71
2024-04-23T09:29:39.663Z,10.66
2024-04-23T09:32:06.525Z,10.61
2024-04-23T09:34:36.941Z,10.18
2024-04-23T09:37:18.132Z,9.87
2024-04-23T09:39:46.906Z,9.04
2024-04-23T09:42:22.895Z,8.42
2024-04-23T09:44:49.400Z,8.20
2024-04-23T09:47:16.427Z,7.68
2024-04-23T09:49:46.441Z,7.71
2024-04-23T09:52:13.438Z,7.40
2024-04-23T09:54:44.381Z,7.53
2024-04-23T09:57:10.839Z,7.29
2024-04-23T09:59:37.352Z,7.24
2024-04-23T10:02:05.126Z,7.16
2024-04-23T10:04:35.430Z,6.84
2024-04-23T10:07:09.680Z,6.99
2024-04-23T10:09:37.176Z,7.00
2024-04-23T10:12:07.062Z,7.13
2024-04-23T10:15:00.447Z,7.04
2024-04-23T10:17:35.694Z,6.90
2024-04-23T10:20:03.021Z,6.78
2024-04-23T10:22:30.908Z,6.80
2024-04-23T10:24:57.813Z,6.83
2024-04-23T10:27:25.845Z,6.89
2024-04-23T10:29:54.077Z,7.04
2024-04-23T10:32:22.426Z,6.83
2024-04-23T10:34:49.372Z,6.96
2024-04-23T10:37:16.565Z,7.15
2024-04-23T10:39:44.763Z,7.30
2024-04-23T10:42:13.001Z,7.23
2024-04-23T10:44:40.386Z,7.06
2024-04-23T10:47:07.074Z,6.77
2024-04-23T10:49:38.142Z,6.80
2024-04-23T10:52:05.753Z,6.70
2024-04-23T10:54:34.108Z,6.69
2024-04-23T10:57:10.618Z,6.67
2024-04-23T10:59:41.730Z,6.67
2024-04-23T11:02:12.498Z,6.55
2024-04-23T11:04:43.428Z,6.65
2024-04-23T11:07:12.221Z,6.61
2024-04-23T11:09:42.096Z,6.69
2024-04-23T11:12:21.482Z,6.84
2024-04-23T11:14:48.890Z,6.96
2024-04-23T11:17:16.145Z,7.06
2024-04-23T11:19:44.931Z,7.15
2024-04-23T11:22:16.453Z,7.14
2024-04-23T11:24:57.226Z,7.26
2024-04-23T11:27:27.168Z,7.19
2024-04-23T11:29:53.953Z,7.42
2024-04-23T11:32:20.833Z,7.41
2024-04-23T11:34:48.527Z,7.51
2024-04-23T11:37:29.855Z,7.45
2024-04-23T11:39:59.725Z,7.41
2024-04-23T11:42:34.067Z,7.43
2024-04-23T11:45:02.122Z,7.53
2024-04-23T11:47:29.961Z,7.55
2024-04-23T11:50:00.882Z,7.64
2024-04-23T11:52:29.294Z,7.57
2024-04-23T11:54:56.291Z,7.57
2024-04-23T11:57:23.106Z,7.61
2024-04-23T11:59:50.361Z,7.75
2024-04-23T12:02:16.964Z,7.63
2024-04-23T12:04:44.811Z,7.66
2024-04-23T12:07:13.023Z,7.64
2024-04-23T12:09:39.493Z,7.79
2024-04-23T12:12:06.730Z,7.72
2024-04-23T12:14:33.470Z,7.87
2024-04-23T12:17:00.574Z,7.80
2024-04-23T12:23:14.316Z,7.51
2024-04-23T12:25:42.555Z,7.39
2024-04-23T12:28:11.177Z,7.23
2024-04-23T12:30:38.672Z,7.07
2024-04-23T12:33:12.685Z,7.10
2024-04-23T12:35:40.350Z,7.26
2024-04-23T12:38:10.966Z,7.28
2024-04-23T12:40:39.090Z,7.52
2024-04-23T12:43:12.401Z,7.58
2024-04-23T12:45:39.957Z,7.42
2024-04-23T12:48:06.870Z,7.48
2024-04-23T12:50:33.643Z,7.31
2024-04-23T12:53:00.318Z,7.35
2024-04-23T12:55:29.033Z,7.34
2024-04-23T12:57:55.505Z,7.23
2024-04-23T13:00:21.985Z,7.35
2024-04-23T13:02:48.669Z,7.17
2024-04-23T13:05:15.244Z,7.23
2024-04-23T13:07:41.790Z,7.31
2024-04-23T13:10:08.343Z,7.47
2024-04-23T13:12:34.794Z,7.60
2024-04-23T13:15:01.276Z,7.56
2024-04-23T13:17:27.803Z,7.61
2024-04-23T13:19:59.853Z,7.63
2024-04-23T13:22:27.594Z,7.53
2024-04-23T13:24:54.141Z,7.52
2024-04-23T13:27:20.800Z,7.49
2024-04-23T13:29:47.844Z,7.38
2024-04-23T13:32:14.439Z,7.34
2024-04-23T13:34:41.018Z,7.58
2024-04-23T13:37:07.633Z,7.84
2024-04-23T13:39:34.086Z,7.84
2024-04-23T13:42:00.559Z,7.75
2024-04-23T13:44:27.718Z,7.90
2024-04-23T13:46:54.232Z,7.83
2024-04-23T13:49:20.746Z,7.67
2024-04-23T13:51:47.226Z,7.66
2024-04-23T13:54:13.674Z,7.65
2024-04-23T13:56:40.121Z,7.73
2024-04-23T13:59:06.653Z,7.69
2024-04-23T14:01:33.223Z,7.64
2024-04-23T14:03:59.929Z,7.76
2024-04-23T14:06:26.473Z,7.95
2024-04-23T14:08:52.950Z,7.75
2024-04-23T14:11:19.560Z,7.72
2024-04-23T14:13:46.120Z,7.93
2024-04-23T14:16:13.532Z,7.79
2024-04-23T14:18:42.093Z,7.88
2024-04-23T14:21:08.760Z,7.84
2024-04-23T14:23:36.045Z,7.76
2024-04-23T14:26:03.253Z,7.75
2024-04-23T14:28:30.967Z,7.66
2024-04-23T14:31:04.843Z,7.63
2024-04-23T14:33:32.339Z,7.60
2024-04-23T14:36:05.594Z,7.49
2024-04-23T14:38:32.844Z,7.45
2024-04-23T14:41:03.892Z,7.40
2024-04-23T14:43:31.184Z,7.31
2024-04-23T14:45:57.748Z,7.28
2024-04-23T14:48:24.948Z,7.34
2024-04-23T14:50:51.906Z,7.38
2024-04-23T14:53:21.656Z,7.42
2024-04-23T14:55:57.991Z,7.44
2024-04-23T14:58:24.694Z,7.62
2024-04-23T15:00:51.159Z,7.77
2024-04-23T15:03:18.829Z,7.91
2024-04-23T15:05:45.951Z,8.31
2024-04-23T15:08:13.085Z,8.34
2024-04-23T15:10:49.801Z,8.33
2024-04-23T15:13:18.537Z,8.30
2024-04-23T15:15:45.538Z,8.41
2024-04-23T15:18:12.137Z,8.55
2024-04-23T15:20:40.361Z,8.42
2024-04-23T15:23:07.676Z,8.65
2024-04-23T15:25:34.258Z,8.82
2024-04-23T15:28:00.801Z,8.81
2024-04-23T15:30:28.279Z,8.80
2024-04-23T15:32:56.292Z,8.81
2024-04-23T15:35:23.601Z,8.71
2024-04-23T15:37:50.107Z,8.61
2024-04-23T15:40:16.572Z,8.56
2024-04-23T15:42:43.579Z,8.48
2024-04-23T15:45:10.903Z,8.38
2024-04-23T15:47:37.629Z,8.09
2024-04-23T15:50:04.545Z,8.16
2024-04-23T15:52:31.021Z,8.13
2024-04-23T15:54:57.479Z,8.37
2024-04-23T15:57:23.932Z,8.54
2024-04-23T15:59:50.391Z,8.55
2024-04-23T16:02:17.056Z,8.61
2024-04-23T16:04:43.593Z,8.52
2024-04-23T16:07:10.064Z,8.59
2024-04-23T16:09:36.526Z,8.43
2024-04-23T16:12:07.612Z,8.45
2024-04-23T16:14:36.621Z,8.45
2024-04-23T16:17:03.190Z,8.35
2024-04-23T16:19:29.638Z,8.25
2024-04-23T16:21:56.099Z,8.22
2024-04-23T16:24:22.558Z,8.08
2024-04-23T16:26:49.038Z,8.14
2024-04-23T16:29:15.551Z,8.05
2024-04-23T16:31:42.067Z,8.11
2024-04-23T16:34:08.950Z,8.23
2024-04-23T16:36:35.437Z,8.34
2024-04-23T16:39:02.026Z,8.31
2024-04-23T16:41:28.475Z,8.45
2024-04-23T16:43:55.053Z,8.45
2024-04-23T16:46:21.619Z,8.42
2024-04-23T16:48:48.552Z,8.40
2024-04-23T16:51:15.108Z,8.36
2024-04-23T16:53:41.573Z,8.35
2024-04-23T16:56:09.687Z,8.25
2024-04-23T16:58:36.528Z,8.07
2024-04-23T17:01:09.898Z,8.04
2024-04-23T17:03:36.638Z,7.97
2024-04-23T17:06:03.274Z,7.92
2024-04-23T17:08:29.887Z,7.90
2024-04-23T17:11:00.591Z,7.75
2024-04-23T17:13:27.199Z,7.72
2024-04-23T17:15:53.674Z,7.57
2024-04-23T17:18:20.255Z,7.46
2024-04-23T17:20:46.847Z,7.42
2024-04-23T17:23:13.915Z,7.45
2024-04-23T17:25:40.482Z,7.26
2024-04-23T17:28:06.962Z,7.31
2024-04-23T17:30:33.435Z,7.31
2024-04-23T17:32:59.997Z,7.20
2024-04-23T17:35:26.603Z,7.09
2024-04-23T17:37:53.093Z,7.19
2024-04-23T17:40:19.612Z,7.21
2024-04-23T17:42:46.277Z,7.20
2024-04-23T17:45:12.728Z,7.09
2024-04-23T17:47:42.361Z,7.03
2024-04-23T17:50:11.651Z,7.02
2024-04-23T17:52:38.287Z,7.14
2024-04-23T17:55:05.944Z,7.10
2024-04-23T17:57:32.393Z,7.05
2024-04-23T17:59:58.865Z,7.03
2024-04-23T18:02:25.392Z,6.91
2024-04-23T18:04:51.922Z,6.91
2024-04-23T18:07:18.459Z,6.95
2024-04-23T18:09:44.918Z,6.83
2024-04-23T18:12:11.415Z,6.84
2024-04-23T18:14:37.859Z,6.80
2024-04-23T18:17:06.081Z,6.70
2024-04-23T18:19:32.651Z,6.67
2024-04-23T18:21:59.126Z,6.62
2024-04-23T18:24:25.665Z,6.50
2024-04-23T18:26:52.473Z,6.46
2024-04-23T18:29:18.921Z,6.36
2024-04-23T18:31:45.460Z,6.27
2024-04-23T18:34:12.302Z,6.14
2024-04-23T18:36:41.243Z,6.12
2024-04-23T18:39:07.716Z,6.08
2024-04-23T18:41:34.160Z,6.01
2024-04-23T18:44:00.881Z,6.01
2024-04-23T18:46:27.360Z,5.96
2024-04-23T18:48:54.537Z,5.88
2024-04-23T18:51:21.153Z,5.75
2024-04-23T18:53:47.746Z,5.77
2024-04-23T18:56:14.971Z,5.79
2024-04-23T18:58:42.820Z,5.68
2024-04-23T19:01:13.104Z,5.55
2024-04-23T19:03:42.009Z,5.45
2024-04-23T19:06:15.749Z,5.45
2024-04-23T19:08:43.212Z,5.36
2024-04-23T19:11:09.794Z,5.26
2024-04-23T19:13:36.841Z,5.07
2024-04-23T19:16:13.466Z,4.96
2024-04-23T19:18:45.170Z,4.89
2024-04-23T19:21:11.966Z,4.72
2024-04-23T19:23:38.393Z,4.63
2024-04-23T19:26:05.467Z,4.54
2024-04-23T19:28:32.755Z,4.40
2024-04-23T19:30:59.219Z,4.28
2024-04-23T19:33:26.108Z,4.14
2024-04-23T19:35:52.624Z,3.98
2024-04-23T19:38:19.578Z,3.83
2024-04-23T19:40:46.224Z,3.72
2024-04-23T19:43:12.691Z,3.80
2024-04-23T19:45:39.174Z,3.67
2024-04-23T19:48:06.033Z,3.80
2024-04-23T19:50:32.522Z,3.81
2024-04-23T19:52:58.979Z,4.00
2024-04-23T19:55:25.478Z,4.14
2024-04-23T19:58:10.584Z,4.18
2024-04-23T20:00:37.087Z,4.29
2024-04-23T20:03:03.784Z,4.25
2024-04-23T20:05:30.333Z,4.14
2024-04-23T20:07:56.853Z,4.02
2024-04-23T20:10:23.339Z,4.00
2024-04-23T20:12:49.829Z,4.00
2024-04-23T20:15:16.295Z,3.85
2024-04-23T20:17:43.061Z,3.80
2024-04-23T20:20:09.817Z,3.82
2024-04-23T20:22:36.290Z,3.81
2024-04-23T20:25:02.767Z,3.65
2024-04-23T20:27:29.280Z,3.61
2024-04-23T20:29:55.732Z,3.73
2024-04-23T20:32:22.217Z,3.80
2024-04-23T20:34:49.575Z,3.79
2024-04-23T20:37:16.106Z,3.63
2024-04-23T20:39:42.607Z,3.61
2024-04-23T20:42:09.086Z,3.67
2024-04-23T20:44:35.617Z,3.48
2024-04-23T20:47:02.195Z,3.49
2024-04-23T20:49:28.691Z,3.45
2024-04-23T20:51:55.169Z,3.52
2024-04-23T20:54:21.619Z,3.26
2024-04-23T20:56:48.141Z,3.13
2024-04-23T20:59:14.640Z,2.93
2024-04-23T21:01:41.205Z,2.78
2024-04-23T21:04:09.049Z,2.70
2024-04-23T21:06:35.610Z,2.64
2024-04-23T21:09:02.088Z,2.64
2024-04-23T21:11:28.566Z,2.53
2024-04-23T21:13:55.114Z,2.54
2024-04-23T21:16:21.610Z,2.61
2024-04-23T21:18:48.664Z,2.54
2024-04-23T21:21:15.213Z,2.78
2024-04-23T21:23:42.080Z,2.68
2024-04-23T21:26:08.917Z,2.78
2024-04-23T21:28:35.494Z,2.68
2024-04-23T21:31:02.332Z,2.74
2024-04-23T21:33:28.989Z,2.78
2024-04-23T21:35:55.532Z,2.74
2024-04-23T21:38:21.989Z,2.67
2024-04-23T21:40:48.479Z,2.62
2024-04-23T21:43:14.952Z,2.51
2024-04-23T21:45:41.410Z,2.53
2024-04-23T21:48:09.443Z,2.47
2024-04-23T21:50:36.840Z,2.44
2024-04-23T21:53:04.622Z,2.35
2024-04-23T21:55:31.120Z,2.36
2024-04-23T21:57:57.579Z,2.28
2024-04-23T22:00:24.045Z,2.24
2024-04-23T22:02:50.664Z,2.19
2024-04-23T22:05:17.292Z,2.21
2024-04-23T22:07:47.240Z,2.11
2024-04-23T22:10:13.844Z,2.03
2024-04-23T22:12:40.315Z,2.01
2024-04-23T22:15:07.191Z,1.98
2024-04-23T22:17:33.816Z,1.94
2024-04-23T22:20:00.426Z,1.92
2024-04-23T22:22:26.904Z,1.80
2024-04-23T22:24:53.398Z,1.67
2024-04-23T22:27:19.936Z,1.66
2024-04-23T22:29:46.411Z,1.59
2024-04-23T22:32:12.900Z,1.59
2024-04-23T22:34:39.386Z,1.61
2024-04-23T22:37:05.822Z,1.55
2024-04-23T22:39:32.279Z,1.49
2024-04-23T22:41:58.726Z,1.35
2024-04-23T22:44:25.973Z,1.34
2024-04-23T22:46:52.578Z,1.30
2024-04-23T22:49:19.048Z,1.25
2024-04-23T22:51:49.936Z,1.16
2024-04-23T22:54:16.817Z,1.17
2024-04-23T22:56:43.300Z,1.04
2024-04-23T22:59:09.788Z,1.04
2024-04-23T23:01:36.260Z,1.08
2024-04-23T23:04:02.805Z,1.02
2024-04-23T23:06:31.336Z,0.97
2024-04-23T23:09:00.305Z,0.84
2024-04-23T23:11:26.914Z,0.75
2024-04-23T23:13:53.486Z,0.77
2024-04-23T23:16:20.002Z,0.79
2024-04-23T23:18:47.213Z,0.77
2024-04-23T23:21:13.667Z,0.71
2024-04-23T23:23:40.195Z,0.68
2024-04-23T23:26:06.677Z,0.74
2024-04-23T23:28:33.340Z,0.71
2024-04-23T23:30:59.784Z,0.66
2024-04-23T23:33:26.354Z,0.63
2024-04-23T23:35:52.905Z,0.64
2024-04-23T23:38:19.454Z,0.60
2024-04-23T23:40:46.013Z,0.58
2024-04-23T23:43:12.499Z,0.58
2024-04-23T23:45:38.981Z,0.63
2024-04-23T23:48:05.971Z,0.57
2024-04-23T23:50:32.511Z,0.61
2024-04-23T23:52:59.145Z,0.70
2024-04-23T23:55:25.644Z,0.71
2024-04-23T23:57:52.099Z,0.72
